Terminal Aerodrome Forecast
Issued by NWS

Home | Current Version | Previous Version | Text Only | Print | Product List | Glossary On
Versions: 1 2 3 4 5 6 7 8 9 10 11 12 13 14 15 16 17 18 19
000
FTUS46 KLOX 222300
TAFOXR
TAF
KOXR 222339Z 2300/2324 28009KT P6SM SKC
     FM230400 VRB03KT P6SM SKC
     FM231000 VRB03KT P6SM OVC007
     FM231200 VRB03KT 4SM BR OVC004
     FM231600 VRB03KT 5SM BR OVC006
     FM231800 25006KT 6SM HZ BKN010
     FM232000 27009KT P6SM SKC=

USA.gov is the U.S. government's official web portal to all federal, state and local government web resources and services.